Pomme de Terre River (Missouri), Hermitage (06921350)

StateMissouriCurrentPotential (227 cfs)
RiverPomme de Terre RiverFlood - The river is flooding. Obstacles can be treacherous or deadly. The river should be avoided at this stage for casual trips and definitely for the inexperienced. Trips should be attempted only with protective gear and equipment.Flood(none)
Updated2019-10-14 2:45 (1 hour ago)High - The river is high and potentially dangerous, especially for the young and / or inexperienced. Normal stream obstacles are sometimes difficult to navigate. Extended distances can be attempted, but canoe travel may not be advisable.High(none)
Discharge227 cfs (median: 49 cfs)Good - Conditions are ideal for a canoe or kayak. Boats typically will drag on fewer than one-quarter of riffles, if at all, and portages are unnecessary or rare. Normal float lengths can be attempted without a problem.Good(none)
Height3.08 feetLow - River is low but can still be floated. Some riffles are okay but most come with significant dragging and might need a portage. Float lengths should be reduced to accommodate low flow, dragging, and portages.Low(none)
TrendSteady (steady over 24 hours)Poor - River is too low to float comfortably. Most or all riffles will drag or must be portaged and some obstacles (such as slick shelf rock) cause undue problems. Avoid the river at this stage for casual paddling trips.Poor(none)
USGSExternal icon USGS Site for Hermitage (06921350)LocationExternal icon Google Maps

Trending Data

Plot Image
ObservationHeightDischargeMaximum
Discharge
Minimum
Discharge
Mean
Discharge
P05P10P20P25P50
(Median)
P75P80P90P95
2019-10-14 02:45 3.08 227 3440 (1971) 3 (2007) 351 17 30 44 45 49 96 131 1960 2840
2019-10-14 01:45 3.08 227 3440 (1971) 3 (2007) 351 17 30 44 45 49 96 131 1960 2840
2019-10-14 00:45 3.08 227 3440 (1971) 3 (2007) 351 17 30 44 45 49 96 131 1960 2840
2019-10-13 23:45 3.08 227 3320 (1994) 6 (2007) 352 10 29 44 46 49 78 127 1960 2830
2019-10-13 22:45 3.08 227 3320 (1994) 6 (2007) 352 10 29 44 46 49 78 127 1960 2830
2019-10-13 21:45 3.08 227 3320 (1994) 6 (2007) 352 10 29 44 46 49 78 127 1960 2830
2019-10-13 20:45 3.08 227 3320 (1994) 6 (2007) 352 10 29 44 46 49 78 127 1960 2830
2019-10-13 19:45 3.08 227 3320 (1994) 6 (2007) 352 10 29 44 46 49 78 127 1960 2830
2019-10-13 18:45 3.08 227 3320 (1994) 6 (2007) 352 10 29 44 46 49 78 127 1960 2830
2019-10-13 17:45 3.08 227 3320 (1994) 6 (2007) 352 10 29 44 46 49 78 127 1960 2830
2019-10-13 16:45 3.08 227 3320 (1994) 6 (2007) 352 10 29 44 46 49 78 127 1960 2830
2019-10-13 15:45 3.08 227 3320 (1994) 6 (2007) 352 10 29 44 46 49 78 127 1960 2830
2019-10-13 14:45 3.08 227 3320 (1994) 6 (2007) 352 10 29 44 46 49 78 127 1960 2830
2019-10-13 13:45 3.08 227 3320 (1994) 6 (2007) 352 10 29 44 46 49 78 127 1960 2830
2019-10-13 12:45 3.08 227 3320 (1994) 6 (2007) 352 10 29 44 46 49 78 127 1960 2830
2019-10-13 11:45 3.08 227 3320 (1994) 6 (2007) 352 10 29 44 46 49 78 127 1960 2830
2019-10-13 10:45 3.08 227 3320 (1994) 6 (2007) 352 10 29 44 46 49 78 127 1960 2830
2019-10-13 09:45 3.08 227 3320 (1994) 6 (2007) 352 10 29 44 46 49 78 127 1960 2830
2019-10-13 08:45 3.08 227 3320 (1994) 6 (2007) 352 10 29 44 46 49 78 127 1960 2830
2019-10-13 07:45 3.08 227 3320 (1994) 6 (2007) 352 10 29 44 46 49 78 127 1960 2830
2019-10-13 06:45 3.08 227 3320 (1994) 6 (2007) 352 10 29 44 46 49 78 127 1960 2830
2019-10-13 05:45 3.08 227 3320 (1994) 6 (2007) 352 10 29 44 46 49 78 127 1960 2830
2019-10-13 04:45 3.08 227 3320 (1994) 6 (2007) 352 10 29 44 46 49 78 127 1960 2830
2019-10-13 03:45 3.08 227 3320 (1994) 6 (2007) 352 10 29 44 46 49 78 127 1960 2830
2019-10-13 02:45 3.08 227 3320 (1994) 6 (2007) 352 10 29 44 46 49 78 127 1960 2830
2019-10-13 01:45 3.08 227 3320 (1994) 6 (2007) 352 10 29 44 46 49 78 127 1960 2830
2019-10-13 00:45 3.08 227 3320 (1994) 6 (2007) 352 10 29 44 46 49 78 127 1960 2830
2019-10-12 23:45 3.08 227 3330 (1994) 10 (1969) 327 18 30 44 45 49 93 126 1970 2270
2019-10-12 22:45 3.08 227 3330 (1994) 10 (1969) 327 18 30 44 45 49 93 126 1970 2270
2019-10-12 21:45 3.08 227 3330 (1994) 10 (1969) 327 18 30 44 45 49 93 126 1970 2270
2019-10-12 20:45 3.08 227 3330 (1994) 10 (1969) 327 18 30 44 45 49 93 126 1970 2270
2019-10-12 19:45 3.08 227 3330 (1994) 10 (1969) 327 18 30 44 45 49 93 126 1970 2270
2019-10-12 18:45 3.08 227 3330 (1994) 10 (1969) 327 18 30 44 45 49 93 126 1970 2270
2019-10-12 17:45 3.08 227 3330 (1994) 10 (1969) 327 18 30 44 45 49 93 126 1970 2270
2019-10-12 16:45 3.08 227 3330 (1994) 10 (1969) 327 18 30 44 45 49 93 126 1970 2270
2019-10-12 15:45 3.08 227 3330 (1994) 10 (1969) 327 18 30 44 45 49 93 126 1970 2270
2019-10-12 14:45 3.08 227 3330 (1994) 10 (1969) 327 18 30 44 45 49 93 126 1970 2270
2019-10-12 13:45 3.08 227 3330 (1994) 10 (1969) 327 18 30 44 45 49 93 126 1970 2270
2019-10-12 12:45 3.08 227 3330 (1994) 10 (1969) 327 18 30 44 45 49 93 126 1970 2270
2019-10-12 11:45 3.08 227 3330 (1994) 10 (1969) 327 18 30 44 45 49 93 126 1970 2270
2019-10-12 10:45 3.08 227 3330 (1994) 10 (1969) 327 18 30 44 45 49 93 126 1970 2270
2019-10-12 09:45 3.08 227 3330 (1994) 10 (1969) 327 18 30 44 45 49 93 126 1970 2270
2019-10-12 08:45 3.08 227 3330 (1994) 10 (1969) 327 18 30 44 45 49 93 126 1970 2270
2019-10-12 07:45 3.08 227 3330 (1994) 10 (1969) 327 18 30 44 45 49 93 126 1970 2270
2019-10-12 06:45 3.08 227 3330 (1994) 10 (1969) 327 18 30 44 45 49 93 126 1970 2270
2019-10-12 05:45 3.08 227 3330 (1994) 10 (1969) 327 18 30 44 45 49 93 126 1970 2270
2019-10-12 04:45 3.08 227 3330 (1994) 10 (1969) 327 18 30 44 45 49 93 126 1970 2270
2019-10-12 03:45 3.08 227 3330 (1994) 10 (1969) 327 18 30 44 45 49 93 126 1970 2270
2019-10-12 02:45 3.08 227 3330 (1994) 10 (1969) 327 18 30 44 45 49 93 126 1970 2270
2019-10-12 01:45 3.08 227 3330 (1994) 10 (1969) 327 18 30 44 45 49 93 126 1970 2270
2019-10-12 00:45 3.08 227 3330 (1994) 10 (1969) 327 18 30 44 45 49 93 126 1970 2270
2019-10-11 23:45 3.08 227 3350 (1994) 7 (2002) 312 14 27 43 44 48 89 117 1220 2290
2019-10-11 22:45 3.08 227 3350 (1994) 7 (2002) 312 14 27 43 44 48 89 117 1220 2290
2019-10-11 21:45 3.08 227 3350 (1994) 7 (2002) 312 14 27 43 44 48 89 117 1220 2290
2019-10-11 20:45 3.08 227 3350 (1994) 7 (2002) 312 14 27 43 44 48 89 117 1220 2290
2019-10-11 19:45 3.08 227 3350 (1994) 7 (2002) 312 14 27 43 44 48 89 117 1220 2290
2019-10-11 18:45 3.07 225 3350 (1994) 7 (2002) 312 14 27 43 44 48 89 117 1220 2290
2019-10-11 17:45 3.07 225 3350 (1994) 7 (2002) 312 14 27 43 44 48 89 117 1220 2290
2019-10-11 16:45 3.04 218 3350 (1994) 7 (2002) 312 14 27 43 44 48 89 117 1220 2290
2019-10-11 15:45 3.01 212 3350 (1994) 7 (2002) 312 14 27 43 44 48 89 117 1220 2290
2019-10-11 14:45 2.89 188 3350 (1994) 7 (2002) 312 14 27 43 44 48 89 117 1220 2290
2019-10-11 13:45 2.61 138 3350 (1994) 7 (2002) 312 14 27 43 44 48 89 117 1220 2290
2019-10-11 12:45 1.88 48 3350 (1994) 7 (2002) 312 14 27 43 44 48 89 117 1220 2290
2019-10-11 11:45 1.79 40 3350 (1994) 7 (2002) 312 14 27 43 44 48 89 117 1220 2290
2019-10-11 10:45 1.79 40 3350 (1994) 7 (2002) 312 14 27 43 44 48 89 117 1220 2290
2019-10-11 09:45 1.80 41 3350 (1994) 7 (2002) 312 14 27 43 44 48 89 117 1220 2290
2019-10-11 08:45 1.80 41 3350 (1994) 7 (2002) 312 14 27 43 44 48 89 117 1220 2290
2019-10-11 07:45 1.80 41 3350 (1994) 7 (2002) 312 14 27 43 44 48 89 117 1220 2290
2019-10-11 06:45 1.80 41 3350 (1994) 7 (2002) 312 14 27 43 44 48 89 117 1220 2290
2019-10-11 05:45 1.80 41 3350 (1994) 7 (2002) 312 14 27 43 44 48 89 117 1220 2290
2019-10-11 04:45 1.80 41 3350 (1994) 7 (2002) 312 14 27 43 44 48 89 117 1220 2290
2019-10-11 03:45 1.80 41 3350 (1994) 7 (2002) 312 14 27 43 44 48 89 117 1220 2290
2019-10-11 02:45 1.80 41 3350 (1994) 7 (2002) 312 14 27 43 44 48 89 117 1220 2290
2019-10-11 01:45 1.80 41 3350 (1994) 7 (2002) 312 14 27 43 44 48 89 117 1220 2290
2019-10-11 00:45 1.80 41 3350 (1994) 7 (2002) 312 14 27 43 44 48 89 117 1220 2290
2019-10-10 23:45 1.81 42 3370 (1994) 3 (1997) 282 14 20 41 44 48 93 119 1110 2020
2019-10-10 22:45 1.81 42 3370 (1994) 3 (1997) 282 14 20 41 44 48 93 119 1110 2020
2019-10-10 21:45 1.81 42 3370 (1994) 3 (1997) 282 14 20 41 44 48 93 119 1110 2020
2019-10-10 20:45 1.81 42 3370 (1994) 3 (1997) 282 14 20 41 44 48 93 119 1110 2020
2019-10-10 19:45 1.80 41 3370 (1994) 3 (1997) 282 14 20 41 44 48 93 119 1110 2020
2019-10-10 18:45 1.81 42 3370 (1994) 3 (1997) 282 14 20 41 44 48 93 119 1110 2020
2019-10-10 17:45 1.82 43 3370 (1994) 3 (1997) 282 14 20 41 44 48 93 119 1110 2020
2019-10-10 16:45 1.82 43 3370 (1994) 3 (1997) 282 14 20 41 44 48 93 119 1110 2020
2019-10-10 15:45 1.82 43 3370 (1994) 3 (1997) 282 14 20 41 44 48 93 119 1110 2020
2019-10-10 14:45 1.81 42 3370 (1994) 3 (1997) 282 14 20 41 44 48 93 119 1110 2020
2019-10-10 13:45 1.79 40 3370 (1994) 3 (1997) 282 14 20 41 44 48 93 119 1110 2020
2019-10-10 12:45 1.77 39 3370 (1994) 3 (1997) 282 14 20 41 44 48 93 119 1110 2020
2019-10-10 11:45 1.77 39 3370 (1994) 3 (1997) 282 14 20 41 44 48 93 119 1110 2020
2019-10-10 10:45 1.78 40 3370 (1994) 3 (1997) 282 14 20 41 44 48 93 119 1110 2020
2019-10-10 09:45 1.78 40 3370 (1994) 3 (1997) 282 14 20 41 44 48 93 119 1110 2020
2019-10-10 08:45 1.78 40 3370 (1994) 3 (1997) 282 14 20 41 44 48 93 119 1110 2020
2019-10-10 07:45 1.78 40 3370 (1994) 3 (1997) 282 14 20 41 44 48 93 119 1110 2020
2019-10-10 06:45 1.78 40 3370 (1994) 3 (1997) 282 14 20 41 44 48 93 119 1110 2020
2019-10-10 05:45 1.78 40 3370 (1994) 3 (1997) 282 14 20 41 44 48 93 119 1110 2020
2019-10-10 04:45 1.76 38 3370 (1994) 3 (1997) 282 14 20 41 44 48 93 119 1110 2020
2019-10-10 03:45 1.76 38 3370 (1994) 3 (1997) 282 14 20 41 44 48 93 119 1110 2020
2019-10-10 02:45 1.76 38 3370 (1994) 3 (1997) 282 14 20 41 44 48 93 119 1110 2020
2019-10-10 01:45 1.76 38 3370 (1994) 3 (1997) 282 14 20 41 44 48 93 119 1110 2020
2019-10-10 00:45 1.76 38 3370 (1994) 3 (1997) 282 14 20 41 44 48 93 119 1110 2020
2019-10-09 23:45 1.76 38 3390 (1994) 3 (1992) 235 11 24 43 44 49 89 112 564 1990
2019-10-09 22:45 1.76 38 3390 (1994) 3 (1992) 235 11 24 43 44 49 89 112 564 1990
2019-10-09 21:45 1.76 38 3390 (1994) 3 (1992) 235 11 24 43 44 49 89 112 564 1990
2019-10-09 20:45 1.76 38 3390 (1994) 3 (1992) 235 11 24 43 44 49 89 112 564 1990
2019-10-09 19:45 1.76 38 3390 (1994) 3 (1992) 235 11 24 43 44 49 89 112 564 1990
2019-10-09 18:45 1.76 38 3390 (1994) 3 (1992) 235 11 24 43 44 49 89 112 564 1990
2019-10-09 17:45 1.76 38 3390 (1994) 3 (1992) 235 11 24 43 44 49 89 112 564 1990
2019-10-09 16:45 1.76 38 3390 (1994) 3 (1992) 235 11 24 43 44 49 89 112 564 1990
2019-10-09 15:45 1.76 38 3390 (1994) 3 (1992) 235 11 24 43 44 49 89 112 564 1990
2019-10-09 14:45 1.76 38 3390 (1994) 3 (1992) 235 11 24 43 44 49 89 112 564 1990
2019-10-09 13:45 1.76 38 3390 (1994) 3 (1992) 235 11 24 43 44 49 89 112 564 1990
2019-10-09 12:45 1.76 38 3390 (1994) 3 (1992) 235 11 24 43 44 49 89 112 564 1990
2019-10-09 11:45 1.76 38 3390 (1994) 3 (1992) 235 11 24 43 44 49 89 112 564 1990
2019-10-09 10:45 1.80 41 3390 (1994) 3 (1992) 235 11 24 43 44 49 89 112 564 1990
2019-10-09 09:45 1.80 41 3390 (1994) 3 (1992) 235 11 24 43 44 49 89 112 564 1990
2019-10-09 08:45 1.80 41 3390 (1994) 3 (1992) 235 11 24 43 44 49 89 112 564 1990
2019-10-09 07:45 1.80 41 3390 (1994) 3 (1992) 235 11 24 43 44 49 89 112 564 1990
2019-10-09 06:45 1.80 41 3390 (1994) 3 (1992) 235 11 24 43 44 49 89 112 564 1990
2019-10-09 05:45 1.80 41 3390 (1994) 3 (1992) 235 11 24 43 44 49 89 112 564 1990
2019-10-09 04:45 1.80 41 3390 (1994) 3 (1992) 235 11 24 43 44 49 89 112 564 1990
2019-10-09 03:45 1.80 41 3390 (1994) 3 (1992) 235 11 24 43 44 49 89 112 564 1990
2019-10-09 02:45 1.80 41 3390 (1994) 3 (1992) 235 11 24 43 44 49 89 112 564 1990
2019-10-09 01:45 1.80 41 3390 (1994) 3 (1992) 235 11 24 43 44 49 89 112 564 1990
2019-10-09 00:45 1.80 41 3390 (1994) 3 (1992) 235 11 24 43 44 49 89 112 564 1990
2019-10-08 23:45 1.80 41 3360 (1994) 3 (1992) 214 4 25 43 44 49 89 104 490 1990
2019-10-08 22:45 1.80 41 3360 (1994) 3 (1992) 214 4 25 43 44 49 89 104 490 1990
2019-10-08 21:45 1.80 41 3360 (1994) 3 (1992) 214 4 25 43 44 49 89 104 490 1990
2019-10-08 20:45 1.80 41 3360 (1994) 3 (1992) 214 4 25 43 44 49 89 104 490 1990
2019-10-08 19:45 1.80 41 3360 (1994) 3 (1992) 214 4 25 43 44 49 89 104 490 1990
2019-10-08 18:45 1.80 41 3360 (1994) 3 (1992) 214 4 25 43 44 49 89 104 490 1990
2019-10-08 17:45 1.80 41 3360 (1994) 3 (1992) 214 4 25 43 44 49 89 104 490 1990
2019-10-08 16:45 1.80 41 3360 (1994) 3 (1992) 214 4 25 43 44 49 89 104 490 1990
2019-10-08 15:45 1.80 41 3360 (1994) 3 (1992) 214 4 25 43 44 49 89 104 490 1990
2019-10-08 14:45 1.80 41 3360 (1994) 3 (1992) 214 4 25 43 44 49 89 104 490 1990
2019-10-08 13:45 1.80 41 3360 (1994) 3 (1992) 214 4 25 43 44 49 89 104 490 1990
2019-10-08 12:45 1.80 41 3360 (1994) 3 (1992) 214 4 25 43 44 49 89 104 490 1990
2019-10-08 11:45 1.80 41 3360 (1994) 3 (1992) 214 4 25 43 44 49 89 104 490 1990
2019-10-08 10:45 1.80 41 3360 (1994) 3 (1992) 214 4 25 43 44 49 89 104 490 1990
2019-10-08 09:45 1.80 41 3360 (1994) 3 (1992) 214 4 25 43 44 49 89 104 490 1990
2019-10-08 08:45 1.81 42 3360 (1994) 3 (1992) 214 4 25 43 44 49 89 104 490 1990
2019-10-08 07:45 1.81 42 3360 (1994) 3 (1992) 214 4 25 43 44 49 89 104 490 1990
2019-10-08 06:45 1.81 42 3360 (1994) 3 (1992) 214 4 25 43 44 49 89 104 490 1990
2019-10-08 05:45 1.81 42 3360 (1994) 3 (1992) 214 4 25 43 44 49 89 104 490 1990
2019-10-08 04:45 1.81 42 3360 (1994) 3 (1992) 214 4 25 43 44 49 89 104 490 1990
2019-10-08 03:45 1.81 42 3360 (1994) 3 (1992) 214 4 25 43 44 49 89 104 490 1990
2019-10-08 02:45 1.81 42 3360 (1994) 3 (1992) 214 4 25 43 44 49 89 104 490 1990
2019-10-08 01:45 1.81 42 3360 (1994) 3 (1992) 214 4 25 43 44 49 89 104 490 1990
2019-10-08 00:45 1.81 42 3360 (1994) 3 (1992) 214 4 25 43 44 49 89 104 490 1990
2019-10-07 23:45 1.81 42 3330 (1994) 3 (1992) 207 4 25 43 44 49 90 104 545 1220
2019-10-07 22:45 1.81 42 3330 (1994) 3 (1992) 207 4 25 43 44 49 90 104 545 1220
2019-10-07 21:45 1.81 42 3330 (1994) 3 (1992) 207 4 25 43 44 49 90 104 545 1220
2019-10-07 20:45 1.83 44 3330 (1994) 3 (1992) 207 4 25 43 44 49 90 104 545 1220
2019-10-07 19:45 1.85 45 3330 (1994) 3 (1992) 207 4 25 43 44 49 90 104 545 1220
2019-10-07 18:45 1.88 48 3330 (1994) 3 (1992) 207 4 25 43 44 49 90 104 545 1220
2019-10-07 17:45 1.94 53 3330 (1994) 3 (1992) 207 4 25 43 44 49 90 104 545 1220
2019-10-07 16:45 2.04 63 3330 (1994) 3 (1992) 207 4 25 43 44 49 90 104 545 1220
2019-10-07 15:45 2.21 81 3330 (1994) 3 (1992) 207 4 25 43 44 49 90 104 545 1220
2019-10-07 14:45 2.53 125 3330 (1994) 3 (1992) 207 4 25 43 44 49 90 104 545 1220
2019-10-07 13:45 3.09 229 3330 (1994) 3 (1992) 207 4 25 43 44 49 90 104 545 1220
2019-10-07 12:45 3.09 229 3330 (1994) 3 (1992) 207 4 25 43 44 49 90 104 545 1220
2019-10-07 11:45 3.09 229 3330 (1994) 3 (1992) 207 4 25 43 44 49 90 104 545 1220
2019-10-07 10:45 3.09 229 3330 (1994) 3 (1992) 207 4 25 43 44 49 90 104 545 1220
2019-10-07 09:45 3.09 229 3330 (1994) 3 (1992) 207 4 25 43 44 49 90 104 545 1220
2019-10-07 08:45 3.09 229 3330 (1994) 3 (1992) 207 4 25 43 44 49 90 104 545 1220
2019-10-07 07:45 3.09 229 3330 (1994) 3 (1992) 207 4 25 43 44 49 90 104 545 1220
2019-10-07 06:45 3.09 229 3330 (1994) 3 (1992) 207 4 25 43 44 49 90 104 545 1220
2019-10-07 05:45 3.09 229 3330 (1994) 3 (1992) 207 4 25 43 44 49 90 104 545 1220
2019-10-07 04:45 3.09 229 3330 (1994) 3 (1992) 207 4 25 43 44 49 90 104 545 1220
2019-10-07 03:45 3.09 229 3330 (1994) 3 (1992) 207 4 25 43 44 49 90 104 545 1220
2019-10-07 02:45 3.09 229 3330 (1994) 3 (1992) 207 4 25 43 44 49 90 104 545 1220
2019-10-07 01:45 3.09 229 3330 (1994) 3 (1992) 207 4 25 43 44 49 90 104 545 1220
2019-10-07 00:45 3.09 229 3330 (1994) 3 (1992) 207 4 25 43 44 49 90 104 545 1220

A total of 171 rows are displayed for years 1961 through 2018.

Trips for Pomme de Terre River (Missouri), Hermitage (06921350)

DateStartEndDistanceConditionDischargeHeightFishingDetails

A total of 0 rows are displayed.

Condition Descriptions

Fishing Conditions

Fish Species

Notes

Classic Trip List

The classic River Trips application is still available for use. It is updated with the new system using a data retrofit. It is no longer maintained. The original River Trips application is no longer updated (as of 1 Dec 2016) but can be checked for errors or for the condition of the data before it was converted to the new system.